Time,TemperatureF,DewpointF,PressureIn,WindDirection,WindDirectionDegrees,WindSpeedMPH,WindSpeedGustMPH,Humidity,HourlyPrecipIn,Conditions,Clouds,dailyrainin,SoftwareType,DateUTC
2013-02-05 00:01:00,3.4,-9.2,22.11,North,0,0.0,0.0,55,0.00,,,0.00,meteohub,2013-02-05 06:01:00,
2013-02-05 00:07:00,3.4,-9.2,22.11,North,0,0.0,0.0,55,0.00,,,0.00,meteohub,2013-02-05 06:07:00,
2013-02-05 00:12:00,3.0,-8.7,22.11,West,270,0.0,0.0,57,0.00,,,0.00,meteohub,2013-02-05 06:12:00,
2013-02-05 00:17:00,2.8,-8.9,22.11,West,270,1.0,1.0,57,0.00,,,0.00,meteohub,2013-02-05 06:17:00,
2013-02-05 00:22:00,2.7,-9.0,22.12,West,270,0.0,1.0,57,0.00,,,0.00,meteohub,2013-02-05 06:22:00,
2013-02-05 00:27:00,2.3,-9.4,22.12,West,270,0.0,1.0,57,0.00,,,0.00,meteohub,2013-02-05 06:27:00,
2013-02-05 00:32:00,1.8,-9.9,22.12,West,270,1.0,1.0,57,0.00,,,0.00,meteohub,2013-02-05 06:32:00,
2013-02-05 00:36:00,1.4,-10.3,22.12,West,270,0.0,2.0,57,0.00,,,0.00,meteohub,2013-02-05 06:36:00,
2013-02-05 00:41:00,1.4,-10.3,22.12,West,270,0.0,2.0,57,0.00,,,0.00,meteohub,2013-02-05 06:41:00,
2013-02-05 00:47:00,1.4,-9.9,22.12,West,270,2.0,2.0,58,0.00,,,0.00,meteohub,2013-02-05 06:47:00,
2013-02-05 00:52:00,1.0,-11.7,22.12,NW,315,0.0,2.0,54,0.00,,,0.00,meteohub,2013-02-05 06:52:00,
2013-02-05 00:57:00,0.9,-11.9,22.13,West,270,0.0,2.0,54,0.00,,,0.00,meteohub,2013-02-05 06:57:00,
2013-02-05 01:02:00,0.9,-11.9,22.13,West,270,0.0,2.0,54,0.00,,,0.00,meteohub,2013-02-05 07:02:00,
2013-02-05 01:07:00,0.9,-11.6,22.14,West,270,0.0,0.0,55,0.00,,,0.00,meteohub,2013-02-05 07:07:00,
2013-02-05 01:12:00,0.9,-11.6,22.14,West,270,0.0,0.0,55,0.00,,,0.00,meteohub,2013-02-05 07:12:00,
2013-02-05 01:17:00,0.9,-11.6,22.14,West,270,0.0,0.0,55,0.00,,,0.00,meteohub,2013-02-05 07:17:00,
2013-02-05 01:22:00,0.7,-11.7,22.14,West,270,0.0,0.0,55,0.00,,,0.00,meteohub,2013-02-05 07:22:00,
2013-02-05 01:27:00,0.5,-11.9,22.14,West,270,0.0,0.0,55,0.00,,,0.00,meteohub,2013-02-05 07:27:00,
2013-02-05 01:32:00,0.5,-11.9,22.14,NW,315,0.0,0.0,55,0.00,,,0.00,meteohub,2013-02-05 07:32:00,
2013-02-05 01:37:00,0.3,-12.1,22.14,SW,225,0.0,0.0,55,0.00,,,0.00,meteohub,2013-02-05 07:37:00,
2013-02-05 01:42:00,0.1,-12.3,22.14,NW,315,0.0,0.0,55,0.00,,,0.00,meteohub,2013-02-05 07:42:00,
2013-02-05 01:47:00,0.0,-12.5,22.14,NW,315,0.0,0.0,55,0.00,,,0.00,meteohub,2013-02-05 07:47:00,
2013-02-05 01:52:00,0.0,-12.5,22.14,NW,315,0.0,0.0,55,0.00,,,0.00,meteohub,2013-02-05 07:52:00,
2013-02-05 01:57:00,0.1,-12.3,22.14,NW,315,0.0,0.0,55,0.00,,,0.00,meteohub,2013-02-05 07:57:00,
2013-02-05 02:02:00,0.1,-12.3,22.14,South,180,1.0,0.0,55,0.00,,,0.00,meteohub,2013-02-05 08:02:00,
2013-02-05 02:07:00,0.1,-12.3,22.14,South,180,1.0,1.0,55,0.00,,,0.00,meteohub,2013-02-05 08:07:00,
2013-02-05 02:12:00,0.5,-11.6,22.14,West,270,0.0,1.0,56,0.00,,,0.00,meteohub,2013-02-05 08:12:00,
2013-02-05 02:17:00,0.9,-11.2,22.14,West,270,1.0,1.0,56,0.00,,,0.00,meteohub,2013-02-05 08:17:00,
2013-02-05 02:22:00,1.0,-11.0,22.15,South,180,1.0,1.0,56,0.00,,,0.00,meteohub,2013-02-05 08:22:00,
2013-02-05 02:27:00,1.0,-11.0,22.15,NNW,338,1.0,2.0,56,0.00,,,0.00,meteohub,2013-02-05 08:27:00,
2013-02-05 02:32:00,1.4,-8.9,22.14,NNE,23,2.0,2.0,61,0.00,,,0.00,meteohub,2013-02-05 08:32:00,
2013-02-05 02:37:00,1.9,-8.3,22.14,NE,45,2.0,2.0,61,0.00,,,0.00,meteohub,2013-02-05 08:37:00,
2013-02-05 02:42:00,2.7,-7.4,22.14,NE,45,0.0,2.0,62,0.00,,,0.00,meteohub,2013-02-05 08:42:00,
2013-02-05 02:47:00,3.4,-7.1,22.14,NW,315,0.0,2.0,61,0.00,,,0.00,meteohub,2013-02-05 08:47:00,
2013-02-05 02:52:00,4.5,-5.6,22.15,SW,225,0.0,2.0,62,0.00,,,0.00,meteohub,2013-02-05 08:52:00,
2013-02-05 02:57:00,4.8,-5.3,22.17,SW,225,0.0,1.0,62,0.00,,,0.00,meteohub,2013-02-05 08:57:00,
2013-02-05 03:02:00,5.2,-5.3,22.16,North,0,0.0,1.0,61,0.00,,,0.00,meteohub,2013-02-05 09:02:00,
2013-02-05 03:07:00,5.4,-5.1,22.16,NNE,23,0.0,1.0,61,0.00,,,0.00,meteohub,2013-02-05 09:07:00,
2013-02-05 03:12:00,5.9,-4.4,22.17,North,0,2.0,2.0,62,0.00,,,0.00,meteohub,2013-02-05 09:12:00,
2013-02-05 03:17:00,6.3,-4.0,22.17,West,270,1.0,2.0,62,0.00,,,0.00,meteohub,2013-02-05 09:17:00,
2013-02-05 03:22:00,7.0,-3.6,22.17,SW,225,0.0,2.0,61,0.00,,,0.00,meteohub,2013-02-05 09:22:00,
2013-02-05 03:27:00,7.5,-2.7,22.17,SW,225,1.0,2.0,62,0.00,,,0.00,meteohub,2013-02-05 09:27:00,
2013-02-05 03:32:00,8.1,-2.2,22.17,South,180,2.0,2.0,62,0.00,,,0.00,meteohub,2013-02-05 09:32:00,
2013-02-05 03:37:00,8.6,-2.0,22.17,West,270,4.0,4.0,61,0.00,,,0.00,meteohub,2013-02-05 09:37:00,
2013-02-05 03:41:00,9.7,-0.8,22.18,SW,225,7.0,7.0,62,0.00,,,0.00,meteohub,2013-02-05 09:41:00,
2013-02-05 03:47:00,10.8,1.6,22.18,NW,315,5.0,7.0,66,0.00,,,0.00,meteohub,2013-02-05 09:47:00,
2013-02-05 03:52:00,11.5,2.3,22.19,West,270,9.0,10.0,66,0.00,,,0.00,meteohub,2013-02-05 09:52:00,
2013-02-05 03:57:00,12.0,2.5,22.19,West,270,6.0,10.0,65,0.00,,,0.00,meteohub,2013-02-05 09:57:00,
2013-02-05 04:02:00,12.2,2.3,22.19,SW,225,7.0,9.0,64,0.00,,,0.00,meteohub,2013-02-05 10:02:00,
2013-02-05 04:06:00,12.2,2.3,22.19,SW,225,7.0,9.0,64,0.00,,,0.00,meteohub,2013-02-05 10:06:00,